createdAt,value
2018-11-26T00:02:16.048Z,20.40
2018-11-26T00:04:43.398Z,21.57
2018-11-26T00:07:10.735Z,22.13
2018-11-26T00:09:38.178Z,21.48
2018-11-26T00:12:05.782Z,22.17
2018-11-26T00:14:33.187Z,21.40
2018-11-26T00:17:00.712Z,21.62
2018-11-26T00:19:28.031Z,19.77
2018-11-26T00:21:55.346Z,21.40
2018-11-26T00:24:22.646Z,21.25
2018-11-26T00:26:49.954Z,22.22
2018-11-26T00:29:17.259Z,21.87
2018-11-26T00:31:44.566Z,21.30
2018-11-26T00:34:11.893Z,21.02
2018-11-26T00:36:39.291Z,21.65
2018-11-26T00:39:09.275Z,19.55
2018-11-26T00:41:36.583Z,19.90
2018-11-26T00:44:03.903Z,21.52
2018-11-26T00:46:31.228Z,19.80
2018-11-26T00:48:58.583Z,20.68
2018-11-26T00:51:26.432Z,19.92
2018-11-26T00:53:53.797Z,21.48
2018-11-26T00:56:21.123Z,21.02
2018-11-26T00:58:48.430Z,20.15
2018-11-26T01:01:16.356Z,19.85
2018-11-26T01:03:43.638Z,21.40
2018-11-26T01:06:10.908Z,21.35
2018-11-26T01:08:38.253Z,20.70
2018-11-26T01:11:06.202Z,21.05
2018-11-26T01:13:37.573Z,18.95
2018-11-26T01:16:04.907Z,19.90
2018-11-26T01:18:36.486Z,19.95
2018-11-26T01:21:03.855Z,20.57
2018-11-26T01:23:31.243Z,19.87
2018-11-26T01:25:58.552Z,23.45
2018-11-26T01:28:25.819Z,19.85
2018-11-26T01:30:53.120Z,22.30
2018-11-26T01:33:20.394Z,20.90
2018-11-26T01:35:47.747Z,19.95
2018-11-26T01:38:15.070Z,21.33
2018-11-26T01:40:48.963Z,21.17
2018-11-26T01:43:16.291Z,17.85
2018-11-26T01:45:43.601Z,19.82
2018-11-26T01:48:11.136Z,19.67
2018-11-26T01:50:38.448Z,20.05
2018-11-26T01:53:06.303Z,21.93
2018-11-26T01:55:37.721Z,22.00
2018-11-26T01:58:05.061Z,20.77
2018-11-26T02:00:32.417Z,19.10
2018-11-26T02:02:59.781Z,20.10
2018-11-26T02:05:27.094Z,20.27
2018-11-26T02:07:54.489Z,18.87
2018-11-26T02:10:21.727Z,19.80
2018-11-26T02:12:49.118Z,20.48
2018-11-26T02:15:47.442Z,20.00
2018-11-26T02:18:14.889Z,21.55
2018-11-26T02:20:42.183Z,19.40
2018-11-26T02:23:09.462Z,18.20
2018-11-26T02:25:41.232Z,20.17
2018-11-26T02:28:08.535Z,18.98
2018-11-26T02:30:35.835Z,19.45
2018-11-26T02:33:04.518Z,21.12
2018-11-26T02:35:31.825Z,20.45
2018-11-26T02:37:59.112Z,20.30
2018-11-26T02:40:27.088Z,21.75
2018-11-26T02:42:54.419Z,18.73
2018-11-26T02:45:21.681Z,17.17
2018-11-26T02:47:49.079Z,20.80
2018-11-26T02:50:16.719Z,19.50
2018-11-26T02:52:44.123Z,18.65
2018-11-26T02:55:11.428Z,19.45
2018-11-26T02:57:38.822Z,19.98
2018-11-26T03:00:07.368Z,19.80
2018-11-26T03:02:34.726Z,20.02
2018-11-26T03:05:02.071Z,19.00
2018-11-26T03:07:30.181Z,20.15
2018-11-26T03:09:57.478Z,19.10
2018-11-26T03:12:24.784Z,21.10
2018-11-26T03:14:52.116Z,20.05
2018-11-26T03:17:19.771Z,20.17
2018-11-26T03:19:47.073Z,17.98
2018-11-26T03:22:14.395Z,19.92
2018-11-26T03:24:41.696Z,21.60
2018-11-26T03:27:12.872Z,19.70
2018-11-26T03:29:40.174Z,19.30
2018-11-26T03:32:07.539Z,19.90
2018-11-26T03:34:34.870Z,19.67
2018-11-26T03:37:02.203Z,20.60
2018-11-26T03:39:29.574Z,18.62
2018-11-26T03:41:56.871Z,18.82
2018-11-26T03:44:24.207Z,18.30
2018-11-26T03:46:51.603Z,18.23
2018-11-26T03:49:18.935Z,19.35
2018-11-26T03:51:46.241Z,19.50
2018-11-26T03:54:13.618Z,18.60
2018-11-26T03:56:41.075Z,19.20
2018-11-26T03:59:08.388Z,19.32
2018-11-26T04:01:35.739Z,20.30
2018-11-26T04:04:03.048Z,19.67
2018-11-26T04:06:30.344Z,18.57
2018-11-26T04:08:57.656Z,18.48
2018-11-26T04:11:24.975Z,19.80
2018-11-26T04:13:52.977Z,21.73
2018-11-26T04:16:20.272Z,20.92
2018-11-26T04:18:47.641Z,21.00
2018-11-26T04:21:14.970Z,18.48
2018-11-26T04:23:42.324Z,18.95
2018-11-26T04:26:13.639Z,19.77
2018-11-26T04:28:40.976Z,18.12
2018-11-26T04:31:08.332Z,18.70
2018-11-26T04:33:35.616Z,20.90
2018-11-26T04:36:02.919Z,17.98
2018-11-26T04:38:30.216Z,18.60
2018-11-26T04:40:57.558Z,20.17
2018-11-26T04:43:25.373Z,18.25
2018-11-26T04:45:52.686Z,20.62
2018-11-26T04:48:20.500Z,19.60
2018-11-26T04:50:47.826Z,18.85
2018-11-26T04:53:15.135Z,19.55
2018-11-26T04:55:42.401Z,18.17
2018-11-26T04:58:09.720Z,20.12
2018-11-26T05:00:37.348Z,17.82
2018-11-26T05:03:04.844Z,18.50
2018-11-26T05:05:32.167Z,18.00
2018-11-26T05:07:59.561Z,16.07
2018-11-26T05:10:27.215Z,19.52
2018-11-26T05:12:54.563Z,17.65
2018-11-26T05:15:21.904Z,19.30
2018-11-26T05:17:49.248Z,19.80
2018-11-26T05:20:16.668Z,16.70
2018-11-26T05:22:44.013Z,20.02
2018-11-26T05:25:11.674Z,18.90
2018-11-26T05:27:38.991Z,19.10
2018-11-26T05:30:08.043Z,19.48
2018-11-26T05:32:35.320Z,18.48
2018-11-26T05:35:02.694Z,18.48
2018-11-26T05:37:30.084Z,17.82
2018-11-26T05:39:57.720Z,19.52
2018-11-26T05:42:28.836Z,18.65
2018-11-26T05:44:52.338Z,18.07
2018-11-26T05:47:19.640Z,18.17
2018-11-26T05:49:46.939Z,18.87
2018-11-26T05:52:14.239Z,17.67
2018-11-26T05:54:41.512Z,16.55
2018-11-26T05:57:08.815Z,18.25
2018-11-26T05:59:36.083Z,18.65
2018-11-26T06:02:03.370Z,17.00
2018-11-26T06:04:30.992Z,19.73
2018-11-26T06:06:58.295Z,18.77
2018-11-26T06:09:25.552Z,18.25
2018-11-26T06:11:52.856Z,20.92
2018-11-26T06:14:20.132Z,21.00
2018-11-26T06:16:53.459Z,19.90
2018-11-26T06:19:14.743Z,18.80
2018-11-26T06:21:42.053Z,19.98
2018-11-26T06:24:09.346Z,19.15
2018-11-26T06:26:36.699Z,18.62
2018-11-26T06:29:03.950Z,17.55
2018-11-26T06:31:31.255Z,18.67
2018-11-26T06:33:58.567Z,18.02
2018-11-26T06:36:25.876Z,20.05
2018-11-26T06:38:53.180Z,19.60
2018-11-26T06:41:20.452Z,19.60
2018-11-26T06:43:47.782Z,19.67
2018-11-26T06:46:15.035Z,16.62
2018-11-26T06:48:42.291Z,19.45
2018-11-26T06:51:09.542Z,20.50
2018-11-26T06:53:36.828Z,19.45
2018-11-26T06:56:04.214Z,17.27
2018-11-26T06:58:31.508Z,20.85
2018-11-26T07:01:03.283Z,19.95
2018-11-26T07:03:30.555Z,18.75
2018-11-26T07:05:58.719Z,18.05
2018-11-26T07:08:26.015Z,20.20
2018-11-26T07:10:53.321Z,20.10
2018-11-26T07:13:20.573Z,19.45
2018-11-26T07:15:47.841Z,17.12
2018-11-26T07:18:15.147Z,19.60
2018-11-26T07:20:42.455Z,19.48
2018-11-26T07:23:09.767Z,18.65
2018-11-26T07:25:37.460Z,20.35
2018-11-26T07:28:06.091Z,23.55
2018-11-26T07:30:33.388Z,19.95
2018-11-26T07:33:02.070Z,21.45
2018-11-26T07:35:29.568Z,21.62
2018-11-26T07:37:56.836Z,21.60
2018-11-26T07:40:24.127Z,19.55
2018-11-26T07:42:52.264Z,20.95
2018-11-26T07:45:19.558Z,23.12
2018-11-26T07:47:46.866Z,23.18
2018-11-26T07:50:14.773Z,22.02
2018-11-26T07:52:42.028Z,23.27
2018-11-26T07:55:11.242Z,23.05
2018-11-26T07:57:38.600Z,22.10
2018-11-26T08:00:08.983Z,21.30
2018-11-26T08:02:36.281Z,23.52
2018-11-26T08:05:03.600Z,19.92
2018-11-26T08:07:30.886Z,21.33
2018-11-26T08:09:58.200Z,22.58
2018-11-26T08:12:25.498Z,24.02
2018-11-26T08:14:52.803Z,26.05
2018-11-26T08:17:20.111Z,23.20
2018-11-26T08:19:47.439Z,23.45
2018-11-26T08:22:14.710Z,23.40
2018-11-26T08:24:42.368Z,22.77
2018-11-26T08:27:09.685Z,24.00
2018-11-26T08:29:36.951Z,21.85
2018-11-26T08:32:04.502Z,24.55
2018-11-26T08:34:31.764Z,24.02
2018-11-26T08:37:04.448Z,23.22
2018-11-26T08:39:36.946Z,23.30
2018-11-26T08:42:08.654Z,21.90
2018-11-26T08:44:45.111Z,24.65
2018-11-26T08:47:18.739Z,23.60
2018-11-26T08:49:45.994Z,19.92
2018-11-26T08:52:13.254Z,22.40
2018-11-26T08:54:40.552Z,21.00
2018-11-26T08:57:07.934Z,23.05
2018-11-26T08:59:35.222Z,22.55
2018-11-26T09:02:06.791Z,20.27
2018-11-26T09:04:36.987Z,21.10
2018-11-26T09:07:04.664Z,22.62
2018-11-26T09:09:32.993Z,20.70
2018-11-26T09:11:59.270Z,20.00
2018-11-26T09:14:26.595Z,23.57
2018-11-26T09:16:53.884Z,22.85
2018-11-26T09:19:21.121Z,21.02
2018-11-26T09:21:48.413Z,22.00
2018-11-26T09:24:15.711Z,19.57
2018-11-26T09:26:43.011Z,20.60
2018-11-26T09:29:10.328Z,22.45
2018-11-26T09:31:37.623Z,20.15
2018-11-26T09:34:05.571Z,21.10
2018-11-26T09:36:32.908Z,21.82
2018-11-26T09:39:00.159Z,22.02
2018-11-26T09:41:27.487Z,21.70
2018-11-26T09:43:54.780Z,23.45
2018-11-26T09:46:22.084Z,18.80
2018-11-26T09:48:49.507Z,20.12
2018-11-26T09:51:16.798Z,21.40
2018-11-26T09:53:44.095Z,22.10
2018-11-26T09:56:11.401Z,20.60
2018-11-26T09:58:38.699Z,22.80
2018-11-26T10:01:06.010Z,21.73
2018-11-26T10:03:33.275Z,21.17
2018-11-26T10:06:00.535Z,19.12
2018-11-26T10:08:27.822Z,15.80
2018-11-26T10:10:55.069Z,19.85
2018-11-26T10:13:22.363Z,19.40
2018-11-26T10:15:49.971Z,20.43
2018-11-26T10:18:17.251Z,18.45
2018-11-26T10:20:44.503Z,20.37
2018-11-26T10:23:11.844Z,19.60
2018-11-26T10:25:39.100Z,18.55
2018-11-26T10:28:06.453Z,19.90
2018-11-26T10:30:33.755Z,17.95
2018-11-26T10:33:01.052Z,17.60
2018-11-26T10:35:28.368Z,19.87
2018-11-26T10:37:55.666Z,19.07
2018-11-26T10:40:25.147Z,17.62
2018-11-26T10:42:52.817Z,19.55
2018-11-26T10:45:20.588Z,19.10
2018-11-26T10:47:48.031Z,18.77
2018-11-26T10:50:15.957Z,16.93
2018-11-26T10:52:43.890Z,16.87
2018-11-26T10:55:27.087Z,18.27
2018-11-26T10:57:54.651Z,16.15
2018-11-26T11:00:27.490Z,16.27
2018-11-26T11:02:54.983Z,18.55
2018-11-26T11:05:22.281Z,16.90
2018-11-26T11:07:49.567Z,19.20
2018-11-26T11:10:18.747Z,19.15
2018-11-26T11:12:46.036Z,18.05
2018-11-26T11:15:13.725Z,18.65
2018-11-26T11:17:41.139Z,18.15
2018-11-26T11:20:12.395Z,19.20
2018-11-26T11:22:39.708Z,18.20
2018-11-26T11:25:07.569Z,19.67
2018-11-26T11:27:34.830Z,17.62
2018-11-26T11:30:02.275Z,19.67
2018-11-26T11:32:29.396Z,15.23
2018-11-26T11:34:56.902Z,20.40
2018-11-26T11:37:24.177Z,18.75
2018-11-26T11:39:51.468Z,19.05
2018-11-26T11:42:18.768Z,19.55
2018-11-26T11:44:46.080Z,18.92
2018-11-26T11:47:13.364Z,19.30
2018-11-26T11:49:40.645Z,20.17
2018-11-26T11:52:07.936Z,18.62
2018-11-26T11:54:35.217Z,17.85
2018-11-26T11:57:02.501Z,16.35
2018-11-26T11:59:29.802Z,14.65
2018-11-26T12:01:57.524Z,17.23
2018-11-26T12:04:24.822Z,18.35
2018-11-26T12:06:52.106Z,16.27
2018-11-26T12:09:19.425Z,15.72
2018-11-26T12:11:46.730Z,17.98
2018-11-26T12:14:14.036Z,18.23
2018-11-26T12:16:41.348Z,16.25
2018-11-26T12:19:08.664Z,17.02
2018-11-26T12:21:36.081Z,16.40
2018-11-26T12:24:03.364Z,14.18
2018-11-26T12:26:30.640Z,19.17
2018-11-26T12:28:58.142Z,16.95
2018-11-26T12:31:25.396Z,16.73
2018-11-26T12:33:52.709Z,17.73
2018-11-26T12:36:20.009Z,16.42
2018-11-26T12:38:47.300Z,18.05
2018-11-26T12:41:14.563Z,14.65
2018-11-26T12:43:41.842Z,16.90
2018-11-26T12:46:09.160Z,16.40
2018-11-26T12:48:36.445Z,17.12
2018-11-26T12:51:03.826Z,17.35
2018-11-26T12:53:31.150Z,17.60
2018-11-26T12:55:58.445Z,15.48
2018-11-26T12:58:25.802Z,17.92
2018-11-26T13:00:53.061Z,15.55
2018-11-26T13:03:20.385Z,17.15
2018-11-26T13:05:47.712Z,15.38
2018-11-26T13:08:14.985Z,16.67
2018-11-26T13:10:42.280Z,19.75
2018-11-26T13:13:09.991Z,16.25
2018-11-26T13:15:37.292Z,17.27
2018-11-26T13:18:04.896Z,17.35
2018-11-26T13:20:32.828Z,12.50
2018-11-26T13:23:00.071Z,18.35
2018-11-26T13:25:27.991Z,11.63
2018-11-26T13:27:55.888Z,17.25
2018-11-26T13:30:23.812Z,18.77
2018-11-26T13:32:51.743Z,17.70
2018-11-26T13:35:19.347Z,18.55
2018-11-26T13:37:46.618Z,17.50
2018-11-26T13:40:14.426Z,17.45
2018-11-26T13:42:41.906Z,16.12
2018-11-26T13:45:11.612Z,18.60
2018-11-26T13:47:38.985Z,16.20
2018-11-26T13:50:23.613Z,18.17
2018-11-26T13:52:50.895Z,16.62
2018-11-26T13:55:18.200Z,16.60
2018-11-26T13:57:45.504Z,17.60
2018-11-26T14:00:13.423Z,17.70
2018-11-26T14:02:40.732Z,17.30
2018-11-26T14:05:09.200Z,17.62
2018-11-26T14:07:36.506Z,17.07
2018-11-26T14:10:03.957Z,17.57
2018-11-26T14:12:31.277Z,17.95
2018-11-26T14:14:58.574Z,17.10
2018-11-26T14:17:25.845Z,16.87
2018-11-26T14:19:53.126Z,17.35
2018-11-26T14:22:20.440Z,17.67
2018-11-26T14:24:47.733Z,16.15
2018-11-26T14:27:15.009Z,17.92
2018-11-26T14:29:42.308Z,18.92
2018-11-26T14:32:10.023Z,17.45
2018-11-26T14:34:37.328Z,16.50
2018-11-26T14:37:04.655Z,17.00
2018-11-26T14:39:31.944Z,16.82
2018-11-26T14:41:59.226Z,16.42
2018-11-26T14:44:26.538Z,15.80
2018-11-26T14:46:53.834Z,16.37
2018-11-26T14:49:21.185Z,15.85
2018-11-26T14:51:48.465Z,15.08
2018-11-26T14:54:15.772Z,16.90
2018-11-26T14:56:43.133Z,16.25
2018-11-26T14:59:10.877Z,17.62
2018-11-26T15:01:38.172Z,13.98
2018-11-26T15:04:05.510Z,14.83
2018-11-26T15:06:32.805Z,15.98
2018-11-26T15:09:00.112Z,13.80
2018-11-26T15:11:27.406Z,16.00
2018-11-26T15:13:54.716Z,15.28
2018-11-26T15:16:22.020Z,14.45
2018-11-26T15:18:49.339Z,15.65
2018-11-26T15:21:16.649Z,15.60
2018-11-26T15:23:43.956Z,14.83
2018-11-26T15:26:11.253Z,15.50
2018-11-26T15:28:38.582Z,15.23
2018-11-26T15:31:05.917Z,14.63
2018-11-26T15:33:33.253Z,14.90
2018-11-26T15:36:00.589Z,14.73
2018-11-26T15:38:27.892Z,15.80
2018-11-26T15:40:55.209Z,15.18
2018-11-26T15:43:22.508Z,14.93
2018-11-26T15:45:49.820Z,15.00
2018-11-26T15:48:17.108Z,14.87
2018-11-26T15:50:44.419Z,14.87
2018-11-26T15:53:11.665Z,15.83
2018-11-26T15:55:38.969Z,15.45
2018-11-26T15:58:06.756Z,15.50
2018-11-26T16:00:34.111Z,14.10
2018-11-26T16:03:01.484Z,16.27
2018-11-26T16:05:29.397Z,13.72
2018-11-26T16:08:00.762Z,13.62
2018-11-26T16:10:28.080Z,15.58
2018-11-26T16:12:56.118Z,14.78
2018-11-26T16:15:24.971Z,16.67
2018-11-26T16:17:52.607Z,13.15
2018-11-26T16:20:21.801Z,14.70
2018-11-26T16:22:49.168Z,12.10
2018-11-26T16:25:17.409Z,14.78
2018-11-26T16:27:44.709Z,15.45
2018-11-26T16:30:12.807Z,13.55
2018-11-26T16:32:40.118Z,14.93
2018-11-26T16:35:08.803Z,14.55
2018-11-26T16:37:36.093Z,15.50
2018-11-26T16:40:03.466Z,14.35
2018-11-26T16:42:30.737Z,15.00
2018-11-26T16:44:58.081Z,14.30
2018-11-26T16:47:25.400Z,13.70
2018-11-26T16:49:52.696Z,15.55
2018-11-26T16:52:20.415Z,16.52
2018-11-26T16:54:47.714Z,14.43
2018-11-26T16:57:15.020Z,15.28
2018-11-26T16:59:42.317Z,16.20
2018-11-26T17:02:09.624Z,13.88
2018-11-26T17:04:36.937Z,13.00
2018-11-26T17:07:04.252Z,14.95
2018-11-26T17:09:31.545Z,15.70
2018-11-26T17:11:58.857Z,16.07
2018-11-26T17:14:26.149Z,15.72
2018-11-26T17:17:00.387Z,15.28
2018-11-26T17:19:27.643Z,15.83
2018-11-26T17:21:54.916Z,15.70
2018-11-26T17:24:22.455Z,15.93
2018-11-26T17:26:49.769Z,15.68
2018-11-26T17:29:17.048Z,16.27
2018-11-26T17:31:44.384Z,16.50
2018-11-26T17:34:11.733Z,15.50
2018-11-26T17:36:39.035Z,17.52
2018-11-26T17:39:07.660Z,15.85
2018-11-26T17:41:34.976Z,15.95
2018-11-26T17:44:02.283Z,15.75
2018-11-26T17:46:29.761Z,17.52
2018-11-26T17:48:57.108Z,17.90
2018-11-26T17:51:24.804Z,17.35
2018-11-26T17:53:52.203Z,14.35
2018-11-26T17:56:19.497Z,16.80
2018-11-26T17:58:46.828Z,16.95
2018-11-26T18:01:15.651Z,15.68
2018-11-26T18:03:43.063Z,16.85
2018-11-26T18:06:10.456Z,16.65
2018-11-26T18:08:37.775Z,15.30
2018-11-26T18:11:05.668Z,14.10
2018-11-26T18:13:33.135Z,17.48
2018-11-26T18:16:00.452Z,17.25
2018-11-26T18:18:28.022Z,16.97
2018-11-26T18:20:55.330Z,16.97
2018-11-26T18:23:22.665Z,18.20
2018-11-26T18:25:50.030Z,18.55
2018-11-26T18:28:17.652Z,17.52
2018-11-26T18:30:45.707Z,19.67
2018-11-26T18:33:13.003Z,18.30
2018-11-26T18:35:40.693Z,18.00
2018-11-26T18:38:08.077Z,17.00
2018-11-26T18:40:36.091Z,19.30
2018-11-26T18:43:03.464Z,17.40
2018-11-26T18:45:30.836Z,17.15
2018-11-26T18:47:58.162Z,16.50
2018-11-26T18:50:25.493Z,16.62
2018-11-26T18:52:52.850Z,16.52
2018-11-26T18:55:20.429Z,13.90
2018-11-26T18:57:47.853Z,15.60
2018-11-26T19:00:19.873Z,16.65
2018-11-26T19:02:47.240Z,21.62
2018-11-26T19:05:14.803Z,21.30
2018-11-26T19:07:42.130Z,18.95
2018-11-26T19:10:15.210Z,18.17
2018-11-26T19:12:43.025Z,17.32
2018-11-26T19:15:11.436Z,16.37
2018-11-26T19:17:38.832Z,18.60
2018-11-26T19:20:08.705Z,17.15
2018-11-26T19:22:36.041Z,17.67
2018-11-26T19:25:03.416Z,16.93
2018-11-26T19:27:31.148Z,18.55
2018-11-26T19:29:58.492Z,17.65
2018-11-26T19:32:25.817Z,18.30
2018-11-26T19:34:53.175Z,17.77
2018-11-26T19:37:20.493Z,18.37
2018-11-26T19:39:47.830Z,17.10
2018-11-26T19:42:15.260Z,17.92
2018-11-26T19:44:42.658Z,18.30
2018-11-26T19:47:10.048Z,16.90
2018-11-26T19:49:37.469Z,17.85
2018-11-26T19:52:09.053Z,18.45
2018-11-26T19:54:36.475Z,16.52
2018-11-26T19:57:03.866Z,17.45
2018-11-26T19:59:31.562Z,19.92
2018-11-26T20:01:58.904Z,18.23
2018-11-26T20:04:31.008Z,17.30
2018-11-26T20:06:59.047Z,17.85
2018-11-26T20:09:26.481Z,17.35
2018-11-26T20:11:53.852Z,18.30
2018-11-26T20:14:25.672Z,17.95
2018-11-26T20:16:48.613Z,18.12
2018-11-26T20:19:16.017Z,18.15
2018-11-26T20:21:47.396Z,19.02
2018-11-26T20:24:14.677Z,16.30
2018-11-26T20:26:42.017Z,17.80
2018-11-26T20:29:09.416Z,18.27
2018-11-26T20:31:37.009Z,17.70
2018-11-26T20:34:04.399Z,18.02
2018-11-26T20:36:31.728Z,17.65
2018-11-26T20:38:59.042Z,17.10
2018-11-26T20:41:26.461Z,15.25
2018-11-26T20:43:53.824Z,16.97
2018-11-26T20:46:21.247Z,17.73
2018-11-26T20:48:48.545Z,16.90
2018-11-26T20:51:15.892Z,17.20
2018-11-26T20:53:43.249Z,17.50
2018-11-26T20:56:13.549Z,17.37
2018-11-26T20:58:40.897Z,19.42
2018-11-26T21:01:08.225Z,16.37
2018-11-26T21:03:35.535Z,15.95
2018-11-26T21:06:02.945Z,18.02
2018-11-26T21:08:30.277Z,18.77
2018-11-26T21:10:57.634Z,18.02
2018-11-26T21:13:24.995Z,17.82
2018-11-26T21:15:52.278Z,18.40
2018-11-26T21:18:19.628Z,16.90
2018-11-26T21:20:47.597Z,17.67
2018-11-26T21:23:17.637Z,17.70
2018-11-26T21:25:44.982Z,17.95
2018-11-26T21:28:12.351Z,17.15
2018-11-26T21:30:39.712Z,17.32
2018-11-26T21:33:07.066Z,19.00
2018-11-26T21:35:34.483Z,18.90
2018-11-26T21:38:01.817Z,17.95
2018-11-26T21:40:29.133Z,18.30
2018-11-26T21:42:56.493Z,18.95
2018-11-26T21:45:24.856Z,17.25
2018-11-26T21:47:52.136Z,18.20
2018-11-26T21:50:19.496Z,17.17
2018-11-26T21:52:46.838Z,17.60
2018-11-26T21:55:14.853Z,18.77
2018-11-26T21:57:42.471Z,18.17
2018-11-26T22:00:42.641Z,19.52
2018-11-26T22:03:11.015Z,17.62
2018-11-26T22:05:38.760Z,17.30
2018-11-26T22:08:06.410Z,17.92
2018-11-26T22:10:33.780Z,18.75
2018-11-26T22:13:01.093Z,16.32
2018-11-26T22:15:28.462Z,16.35
2018-11-26T22:17:55.757Z,18.27
2018-11-26T22:20:24.868Z,17.60
2018-11-26T22:22:52.239Z,18.20
2018-11-26T22:25:19.579Z,17.98
2018-11-26T22:27:47.030Z,17.85
2018-11-26T22:30:17.815Z,18.27
2018-11-26T22:32:46.587Z,20.70
2018-11-26T22:35:13.971Z,21.95
2018-11-26T22:37:41.389Z,19.90
2018-11-26T22:40:09.621Z,21.50
2018-11-26T22:42:37.002Z,19.12
2018-11-26T22:45:04.661Z,18.80
2018-11-26T22:47:32.120Z,22.17
2018-11-26T22:49:59.511Z,19.50
2018-11-26T22:52:26.872Z,19.27
2018-11-26T22:54:54.212Z,19.90
2018-11-26T22:57:21.546Z,20.25
2018-11-26T22:59:48.842Z,17.02
2018-11-26T23:02:16.209Z,20.60
2018-11-26T23:04:43.474Z,19.50
2018-11-26T23:07:10.860Z,20.02
2018-11-26T23:09:38.189Z,20.02
2018-11-26T23:12:05.561Z,19.48
2018-11-26T23:14:32.952Z,20.95
2018-11-26T23:17:00.371Z,21.45
2018-11-26T23:19:27.703Z,19.70
2018-11-26T23:21:55.016Z,20.37
2018-11-26T23:24:22.308Z,22.02
2018-11-26T23:26:50.083Z,20.68
2018-11-26T23:29:18.017Z,19.75
2018-11-26T23:34:12.086Z,19.17
2018-11-26T23:36:39.469Z,21.10
2018-11-26T23:39:07.529Z,21.82
2018-11-26T23:41:34.850Z,20.45
2018-11-26T23:44:02.258Z,21.85
2018-11-26T23:46:29.818Z,20.90
2018-11-26T23:48:57.172Z,20.50
2018-11-26T23:51:24.479Z,20.40
2018-11-26T23:53:51.913Z,19.85
2018-11-26T23:56:19.209Z,20.27
2018-11-26T23:58:46.716Z,20.70
